Terminal Aerodrome Forecast
Issued by NWS

Home | Current Version | Previous Version | Text Only | Print | Product List | Glossary On
Versions: 1 2 3 4 5 6 7 8 9 10 11 12 13 14 15 16 17 18
721
FTUS41 KPBZ 280527
TAFMGW
TAF
KMGW 280527Z 2806/0106 15004KT P6SM BKN050
     FM280800 13004KT P6SM SCT060
      TEMPO 2808/2811 3SM BR
     FM281600 16007KT 6SM -RA OVC050
     FM281800 18008KT 4SM -RA OVC020
     FM010000 19012KT 6SM -RA OVC010
     FM010400 20012G22KT P6SM OVC025=

USA.gov is the U.S. government's official web portal to all federal, state and local government web resources and services.